createdAt,value
2019-01-29T12:55:43.249Z,10.10
2019-01-29T12:58:12.560Z,9.90
2019-01-29T13:00:51.456Z,9.80
2019-01-29T13:03:20.845Z,9.80
2019-01-29T13:05:49.888Z,9.80
2019-01-29T13:08:18.936Z,9.80
2019-01-29T13:10:48.016Z,9.80
2019-01-29T13:13:17.066Z,9.80
2019-01-29T13:15:46.101Z,9.90
2019-01-29T13:18:15.267Z,10.00
2019-01-29T13:20:44.354Z,10.00
2019-01-29T13:23:13.393Z,9.90
2019-01-29T13:25:42.414Z,9.80
2019-01-29T13:28:11.438Z,9.80
2019-01-29T13:30:40.519Z,9.80
2019-01-29T13:33:14.218Z,9.80
2019-01-29T13:35:43.379Z,9.80
2019-01-29T13:38:12.764Z,9.80
2019-01-29T13:40:42.207Z,9.80
2019-01-29T13:43:11.566Z,9.80
2019-01-29T13:45:41.724Z,9.80
2019-01-29T13:48:10.924Z,9.70
2019-01-29T13:50:43.877Z,9.50
2019-01-29T13:53:12.900Z,9.50
2019-01-29T13:55:42.291Z,9.30
2019-01-29T13:58:11.664Z,9.30
2019-01-29T14:00:41.075Z,9.20
2019-01-29T14:03:11.432Z,9.20
2019-01-29T14:05:40.537Z,9.10
2019-01-29T14:08:09.601Z,9.10
2019-01-29T14:10:39.015Z,9.10
2019-01-29T14:13:10.966Z,9.10
2019-01-29T14:15:52.727Z,9.10
2019-01-29T14:18:23.674Z,9.00
2019-01-29T14:20:52.725Z,8.80
2019-01-29T14:23:23.612Z,8.70
2019-01-29T14:25:52.637Z,8.60
2019-01-29T14:28:21.632Z,8.60
2019-01-29T14:30:50.660Z,8.60
2019-01-29T14:33:19.820Z,8.60
2019-01-29T14:35:48.868Z,8.50
2019-01-29T14:39:05.040Z,8.50
2019-01-29T14:41:35.136Z,8.50
2019-01-29T14:44:06.103Z,8.40
2019-01-29T14:46:35.140Z,8.30
2019-01-29T14:49:04.567Z,8.30
2019-01-29T14:51:33.591Z,8.40
2019-01-29T14:54:03.444Z,8.40
2019-01-29T14:56:32.395Z,8.40
2019-01-29T14:59:04.346Z,8.40
2019-01-29T15:01:34.615Z,8.40
2019-01-29T15:04:04.050Z,8.30
2019-01-29T15:06:33.425Z,8.30
2019-01-29T15:09:02.552Z,8.40
2019-01-29T15:11:31.605Z,8.40
2019-01-29T15:14:01.445Z,8.30
2019-01-29T15:16:52.363Z,8.30
2019-01-29T15:19:24.603Z,8.20
2019-01-29T15:21:53.936Z,8.10
2019-01-29T15:24:23.216Z,7.90
2019-01-29T15:26:52.412Z,7.90
2019-01-29T15:29:21.420Z,7.80
2019-01-29T15:31:50.486Z,7.70
2019-01-29T15:34:19.555Z,7.60
2019-01-29T15:36:48.616Z,7.60
2019-01-29T15:39:18.010Z,7.50
2019-01-29T15:41:46.974Z,7.40
2019-01-29T15:44:16.105Z,7.30
2019-01-29T15:46:45.089Z,7.30
2019-01-29T15:49:14.358Z,7.30
2019-01-29T15:51:43.682Z,7.30
2019-01-29T15:54:12.690Z,7.30
2019-01-29T15:56:41.694Z,7.20
2019-01-29T15:59:10.882Z,7.10
2019-01-29T16:01:42.666Z,7.10
2019-01-29T16:04:11.733Z,7.00
2019-01-29T16:06:41.111Z,7.00
2019-01-29T16:09:10.946Z,7.00
2019-01-29T16:11:40.524Z,6.90
2019-01-29T16:14:09.583Z,6.90
2019-01-29T16:16:38.672Z,6.80
2019-01-29T16:19:07.785Z,6.80
2019-01-29T16:21:37.126Z,6.70
2019-01-29T16:24:06.194Z,6.80
2019-01-29T16:26:35.264Z,6.70
2019-01-29T16:29:04.641Z,6.70
2019-01-29T16:31:33.582Z,6.60
2019-01-29T16:34:02.999Z,6.50
2019-01-29T16:36:32.934Z,6.50
2019-01-29T16:39:02.022Z,6.50
2019-01-29T16:41:33.806Z,6.40
2019-01-29T16:44:02.909Z,6.40
2019-01-29T16:46:31.954Z,6.30
2019-01-29T16:49:01.262Z,6.30
2019-01-29T16:51:30.672Z,6.30
2019-01-29T16:53:59.698Z,6.20
2019-01-29T16:56:28.759Z,6.20
2019-01-29T16:58:57.759Z,6.20
2019-01-29T17:01:27.012Z,6.10
2019-01-29T17:03:56.128Z,6.10
2019-01-29T17:06:25.125Z,6.10
2019-01-29T17:08:54.180Z,6.10
2019-01-29T17:11:23.544Z,6.10
2019-01-29T17:13:52.587Z,6.10
2019-01-29T17:16:21.749Z,6.10
2019-01-29T17:18:50.691Z,6.10
2019-01-29T17:21:19.717Z,6.10
2019-01-29T17:23:49.099Z,6.20
2019-01-29T17:26:18.221Z,6.20
2019-01-29T17:28:47.412Z,6.20
2019-01-29T17:31:16.723Z,6.20
2019-01-29T17:33:45.785Z,6.20
2019-01-29T17:36:14.828Z,6.10
2019-01-29T17:38:44.944Z,6.10
2019-01-29T17:41:14.079Z,6.00
2019-01-29T17:43:43.399Z,6.10
2019-01-29T17:46:12.806Z,6.10
2019-01-29T17:48:42.206Z,6.10
2019-01-29T17:51:11.302Z,6.00
2019-01-29T17:53:40.718Z,6.10
2019-01-29T17:56:09.759Z,6.10
2019-01-29T17:58:38.793Z,6.20
2019-01-29T18:01:08.270Z,6.20
2019-01-29T18:03:37.397Z,6.20
2019-01-29T18:06:06.436Z,6.30
2019-01-29T18:08:35.590Z,6.30
2019-01-29T18:11:04.717Z,6.20
2019-01-29T18:13:33.741Z,6.20
2019-01-29T18:16:02.798Z,6.30
2019-01-29T18:18:31.797Z,6.20
2019-01-29T18:21:00.869Z,6.30
2019-01-29T18:23:29.877Z,6.20
2019-01-29T18:25:58.843Z,6.30
2019-01-29T18:28:27.777Z,6.30
2019-01-29T18:30:57.169Z,6.20
2019-01-29T18:33:26.235Z,6.20
2019-01-29T18:35:55.195Z,6.20
2019-01-29T18:38:24.133Z,6.20
2019-01-29T18:40:55.426Z,6.20
2019-01-29T18:43:24.458Z,6.20
2019-01-29T18:45:53.496Z,6.20
2019-01-29T18:48:23.375Z,6.20
2019-01-29T18:50:53.230Z,6.20
2019-01-29T18:53:22.591Z,6.20
2019-01-29T18:55:51.628Z,6.30
2019-01-29T18:58:23.884Z,6.20
2019-01-29T19:00:54.856Z,6.10
2019-01-29T19:03:24.268Z,6.20
2019-01-29T19:05:53.355Z,6.20
2019-01-29T19:08:22.888Z,6.20
2019-01-29T19:10:54.817Z,6.20
2019-01-29T19:13:24.211Z,6.20
2019-01-29T19:15:54.020Z,6.30
2019-01-29T19:18:24.274Z,6.20
2019-01-29T19:20:53.600Z,6.20
2019-01-29T19:23:22.848Z,6.20
2019-01-29T19:25:52.524Z,6.20
2019-01-29T19:28:22.427Z,6.20
2019-01-29T19:30:51.647Z,6.20
2019-01-29T19:33:21.066Z,6.30
2019-01-29T19:35:50.459Z,6.30
2019-01-29T19:38:19.581Z,6.30
2019-01-29T19:40:51.128Z,6.30
2019-01-29T19:43:20.338Z,6.30
2019-01-29T19:45:50.692Z,6.30
2019-01-29T19:48:19.972Z,6.30
2019-01-29T19:50:49.203Z,6.30
2019-01-29T19:53:18.401Z,6.30
2019-01-29T19:55:47.548Z,6.30
2019-01-29T19:58:16.601Z,6.20
2019-01-29T20:00:45.684Z,6.20
2019-01-29T20:03:14.905Z,6.30
2019-01-29T20:05:44.039Z,6.30
2019-01-29T20:08:13.243Z,6.30
2019-01-29T20:10:42.653Z,6.30
2019-01-29T20:13:11.788Z,6.30
2019-01-29T20:15:40.974Z,6.30
2019-01-29T20:18:10.274Z,6.30
2019-01-29T20:20:40.737Z,6.30
2019-01-29T20:23:09.938Z,6.40
2019-01-29T20:25:39.128Z,6.30
2019-01-29T20:28:08.376Z,6.30
2019-01-29T20:30:38.685Z,6.20
2019-01-29T20:33:08.428Z,6.20
2019-01-29T20:35:37.567Z,6.30
2019-01-29T20:38:08.776Z,6.30
2019-01-29T20:40:38.910Z,6.30
2019-01-29T20:43:08.049Z,6.30
2019-01-29T20:45:37.555Z,6.30
2019-01-29T20:48:06.670Z,6.30
2019-01-29T20:50:36.469Z,6.30
2019-01-29T20:53:05.606Z,6.30
2019-01-29T20:55:34.738Z,6.20
2019-01-29T20:58:04.089Z,6.20
2019-01-29T21:00:35.052Z,6.20
2019-01-29T21:03:05.179Z,6.20
2019-01-29T21:05:34.388Z,6.10
2019-01-29T21:08:04.004Z,6.10
2019-01-29T21:10:33.359Z,6.10
2019-01-29T21:13:02.766Z,6.10
2019-01-29T21:15:38.001Z,6.10
2019-01-29T21:18:02.788Z,6.00
2019-01-29T21:20:32.597Z,6.00
2019-01-29T21:23:01.744Z,6.00
2019-01-29T21:25:30.828Z,6.00
2019-01-29T21:28:00.787Z,5.90
2019-01-29T21:30:34.657Z,5.90
2019-01-29T21:33:03.719Z,5.90
2019-01-29T21:35:47.919Z,5.90
2019-01-29T21:38:17.408Z,5.80
2019-01-29T21:40:47.234Z,5.90
2019-01-29T21:43:23.079Z,5.90
2019-01-29T21:45:52.590Z,5.90
2019-01-29T21:48:21.675Z,5.90
2019-01-29T21:50:50.885Z,5.90
2019-01-29T21:53:25.825Z,5.90
2019-01-29T21:55:55.084Z,5.90
2019-01-29T21:58:24.160Z,5.90
2019-01-29T22:00:53.218Z,6.00
2019-01-29T22:03:22.342Z,6.00
2019-01-29T22:05:51.627Z,5.90
2019-01-29T22:08:20.681Z,5.90
2019-01-29T22:10:49.859Z,5.80
2019-01-29T22:13:19.244Z,5.80
2019-01-29T22:15:48.200Z,5.80
2019-01-29T22:18:17.294Z,5.80
2019-01-29T22:20:46.808Z,5.80
2019-01-29T22:23:16.241Z,5.80
2019-01-29T22:25:45.402Z,5.80
2019-01-29T22:28:31.681Z,5.80
2019-01-29T22:31:01.192Z,5.80
2019-01-29T22:33:31.097Z,5.80
2019-01-29T22:36:00.747Z,5.70
2019-01-29T22:38:29.876Z,5.70
2019-01-29T22:40:59.321Z,5.70
2019-01-29T22:43:28.850Z,5.60
2019-01-29T22:45:57.941Z,5.60
2019-01-29T22:48:27.033Z,5.60
2019-01-29T22:50:56.110Z,5.60
2019-01-29T22:53:25.581Z,5.70
2019-01-29T22:55:54.696Z,5.70
2019-01-29T22:58:24.109Z,5.70
2019-01-29T23:01:30.254Z,5.70
2019-01-29T23:04:27.541Z,5.70
2019-01-29T23:07:14.971Z,5.60
2019-01-29T23:09:44.088Z,5.60
2019-01-29T23:12:13.356Z,5.50
2019-01-29T23:14:42.705Z,5.50
2019-01-29T23:17:11.922Z,5.50
2019-01-29T23:19:40.980Z,5.60
2019-01-29T23:22:10.180Z,5.60
2019-01-29T23:24:39.540Z,5.60
2019-01-29T23:27:09.160Z,5.60
2019-01-29T23:29:43.538Z,5.60
2019-01-29T23:32:09.984Z,5.60
2019-01-29T23:34:39.077Z,5.50
2019-01-29T23:37:08.611Z,5.50
2019-01-29T23:39:37.619Z,5.50
2019-01-29T23:42:06.758Z,5.40
2019-01-29T23:44:36.907Z,5.40
2019-01-29T23:47:06.226Z,5.40
2019-01-29T23:49:35.652Z,5.40
2019-01-29T23:52:05.174Z,5.40
2019-01-29T23:54:34.836Z,5.40
2019-01-29T23:57:04.263Z,5.50
2019-01-29T23:59:33.453Z,5.40
